Time;durP1;ratioP1;P1;durP2;ratioP2;P2;SDS_P1;SDS_P2;PMS_P1;PMS_P2;Temp;Humidity;BMP_temperature;BMP_pressure;BME280_temperature;BME280_humidity;BME280_pressure;Samples;Min_cycle;Max_cycle;Signal;HPM_P1;HPM_P2
2022/04/15 00:00:07;;;;;;;15.73;9.23;;;;;;;;;;5084123;28;20065;-72
2022/04/15 00:02:33;;;;;;;15.85;9.07;;;;;;;;;;5088424;28;20031;-70
2022/04/15 00:04:59;;;;;;;17.48;10.55;;;;;;;;;;5090092;28;20241;-70
2022/04/15 00:07:25;;;;;;;17.25;9.48;;;;;;;;;;5089042;28;20026;-70
2022/04/15 00:09:51;;;;;;;19.95;9.65;;;;;;;;;;5087271;28;20385;-70
2022/04/15 00:12:27;;;;;;;14.10;8.90;;;;;;;;;;5089077;28;20028;-70
2022/04/15 00:14:53;;;;;;;22.58;10.88;;;;;;;;;;5080515;28;20036;-70
2022/04/15 00:17:19;;;;;;;17.52;9.85;;;;;;;;;;5091806;28;20103;-70
2022/04/15 00:19:47;;;;;;;17.42;8.75;;;;;;;;;;5090925;28;20028;-70
2022/04/15 00:22:13;;;;;;;13.13;8.85;;;;;;;;;;5080498;28;20445;-70
2022/04/15 00:24:39;;;;;;;19.15;8.73;;;;;;;;;;5080315;28;20099;-71
2022/04/15 00:27:05;;;;;;;15.55;8.80;;;;;;;;;;5088149;28;20028;-70
2022/04/15 00:29:31;;;;;;;15.32;8.40;;;;;;;;;;5089453;28;20032;-70
2022/04/15 00:31:57;;;;;;;16.05;9.82;;;;;;;;;;5087486;28;20469;-71
2022/04/15 00:34:23;;;;;;;24.65;9.90;;;;;;;;;;5094729;28;20046;-70
2022/04/15 00:36:49;;;;;;;16.67;9.00;;;;;;;;;;5087738;28;20036;-70
2022/04/15 00:39:15;;;;;;;13.57;8.60;;;;;;;;;;5080887;28;20115;-70
2022/04/15 00:41:43;;;;;;;14.75;8.43;;;;;;;;;;5088068;28;20032;-70
2022/04/15 00:44:09;;;;;;;12.07;7.97;;;;;;;;;;5086120;28;20020;-70
2022/04/15 00:46:35;;;;;;;12.88;7.57;;;;;;;;;;5088415;28;20047;-73
2022/04/15 00:49:01;;;;;;;14.73;8.00;;;;;;;;;;5093612;28;20388;-70
2022/04/15 00:51:28;;;;;;;16.35;9.27;;;;;;;;;;5087894;28;20027;-70
2022/04/15 00:53:56;;;;;;;13.75;8.90;;;;;;;;;;5087655;28;20024;-71
2022/04/15 00:56:23;;;;;;;25.58;10.73;;;;;;;;;;5089559;28;20115;-71
2022/04/15 00:58:49;;;;;;;19.98;8.63;;;;;;;;;;5092327;28;20028;-70
2022/04/15 01:01:17;;;;;;;18.17;10.00;;;;;;;;;;5089598;28;20032;-70
2022/04/15 01:03:44;;;;;;;16.30;8.70;;;;;;;;;;5095208;28;20020;-70
2022/04/15 01:06:11;;;;;;;17.15;9.35;;;;;;;;;;5084392;28;20032;-70
2022/04/15 01:08:39;;;;;;;17.40;9.23;;;;;;;;;;5091788;28;20024;-70
2022/04/15 01:11:07;;;;;;;21.15;9.38;;;;;;;;;;5091892;28;20029;-70
2022/04/15 01:13:38;;;;;;;14.13;8.48;;;;;;;;;;5091276;28;20051;-71
2022/04/15 01:16:04;;;;;;;23.88;9.93;;;;;;;;;;5091943;28;20040;-70
2022/04/15 01:18:31;;;;;;;18.83;8.70;;;;;;;;;;5094498;28;20031;-71
2022/04/15 01:20:57;;;;;;;13.55;8.13;;;;;;;;;;5091931;28;20118;-70
2022/04/15 01:23:23;;;;;;;15.10;8.75;;;;;;;;;;5091919;28;20031;-71
2022/04/15 01:25:49;;;;;;;15.35;8.60;;;;;;;;;;5091549;28;20028;-70
2022/04/15 01:28:16;;;;;;;12.20;7.22;;;;;;;;;;5091763;28;20543;-70
2022/04/15 01:30:43;;;;;;;13.55;8.20;;;;;;;;;;5091697;28;20040;-71
2022/04/15 01:33:09;;;;;;;13.20;7.15;;;;;;;;;;5079554;28;20592;-71
2022/04/15 01:35:35;;;;;;;13.00;7.28;;;;;;;;;;5090130;28;20118;-70
2022/04/15 01:38:02;;;;;;;17.33;6.70;;;;;;;;;;5092365;28;20035;-70
2022/04/15 01:40:28;;;;;;;12.38;6.35;;;;;;;;;;5091086;28;20027;-70
2022/04/15 01:42:54;;;;;;;13.07;6.50;;;;;;;;;;5091356;28;20024;-70
2022/04/15 01:45:20;;;;;;;11.32;6.18;;;;;;;;;;5091100;28;20016;-70
2022/04/15 01:47:46;;;;;;;16.77;6.70;;;;;;;;;;5092016;28;20089;-70
2022/04/15 01:50:12;;;;;;;14.02;6.75;;;;;;;;;;5091332;28;20537;-70
2022/04/15 01:52:39;;;;;;;18.02;6.20;;;;;;;;;;5091743;28;20077;-71
2022/04/15 01:55:05;;;;;;;12.35;6.57;;;;;;;;;;5091085;28;20473;-70
2022/04/15 01:57:31;;;;;;;9.18;5.82;;;;;;;;;;5084819;28;20024;-70
2022/04/15 01:59:57;;;;;;;11.98;6.25;;;;;;;;;;5081009;28;20024;-70
2022/04/15 02:02:23;;;;;;;14.23;6.63;;;;;;;;;;5084879;28;20023;-71
2022/04/15 02:04:49;;;;;;;10.32;6.07;;;;;;;;;;5088343;28;20042;-71
2022/04/15 02:07:15;;;;;;;11.95;6.07;;;;;;;;;;5090469;28;20028;-70
2022/04/15 02:09:41;;;;;;;14.98;6.03;;;;;;;;;;5073049;28;20525;-70
2022/04/15 02:12:07;;;;;;;10.65;5.90;;;;;;;;;;5091285;28;20027;-70
2022/04/15 02:14:33;;;;;;;13.20;6.30;;;;;;;;;;5090998;28;20031;-71
2022/04/15 02:16:59;;;;;;;16.73;6.43;;;;;;;;;;5088961;28;20032;-70
2022/04/15 02:19:25;;;;;;;10.93;6.50;;;;;;;;;;5079442;28;20054;-70
2022/04/15 02:21:51;;;;;;;13.13;6.35;;;;;;;;;;5090677;28;20038;-71
2022/04/15 02:24:17;;;;;;;11.05;7.05;;;;;;;;;;5090997;28;20376;-70
2022/04/15 02:26:44;;;;;;;10.57;6.00;;;;;;;;;;5089937;28;20055;-71
2022/04/15 02:29:10;;;;;;;12.85;6.57;;;;;;;;;;5082586;28;20505;-70
2022/04/15 02:31:36;;;;;;;13.00;6.95;;;;;;;;;;5090815;28;20016;-71
2022/04/15 02:36:31;;;;;;;16.50;7.85;;;;;;;;;;5088927;22;20079;-70
2022/04/15 02:38:58;;;;;;;11.40;6.75;;;;;;;;;;5069870;28;20485;-69
2022/04/15 02:41:24;;;;;;;10.27;6.38;;;;;;;;;;5090476;28;20456;-70
2022/04/15 02:43:50;;;;;;;12.15;6.40;;;;;;;;;;5066783;28;20024;-70
2022/04/15 02:46:16;;;;;;;9.75;6.10;;;;;;;;;;5067344;28;20032;-69
2022/04/15 02:48:42;;;;;;;11.82;6.55;;;;;;;;;;5070816;28;20154;-70
2022/04/15 02:51:08;;;;;;;16.58;6.93;;;;;;;;;;5080693;28;20040;-69
2022/04/15 02:53:34;;;;;;;18.30;7.38;;;;;;;;;;5090889;28;20024;-69
2022/04/15 02:56:00;;;;;;;12.40;6.22;;;;;;;;;;5072607;28;20162;-70
2022/04/15 02:58:26;;;;;;;11.90;7.00;;;;;;;;;;5066310;28;20374;-69
2022/04/15 03:00:52;;;;;;;10.30;6.60;;;;;;;;;;5084841;28;20035;-70
2022/04/15 03:03:19;;;;;;;11.23;5.97;;;;;;;;;;5078686;28;20038;-70
2022/04/15 03:05:45;;;;;;;15.95;6.40;;;;;;;;;;5081134;28;20085;-70
2022/04/15 03:08:11;;;;;;;17.75;6.15;;;;;;;;;;5072404;28;20024;-70
2022/04/15 03:10:37;;;;;;;14.80;6.60;;;;;;;;;;5060438;28;20034;-70
2022/04/15 03:13:03;;;;;;;10.43;5.88;;;;;;;;;;5059462;28;20040;-69
2022/04/15 03:15:30;;;;;;;9.18;5.20;;;;;;;;;;5054509;28;20036;-70
2022/04/15 03:17:55;;;;;;;11.30;6.43;;;;;;;;;;5068138;28;20482;-70
2022/04/15 03:20:22;;;;;;;13.43;6.13;;;;;;;;;;5079299;28;20107;-70
2022/04/15 03:22:48;;;;;;;8.82;5.43;;;;;;;;;;5072659;28;20024;-70
2022/04/15 03:25:19;;;;;;;9.23;5.38;;;;;;;;;;5088387;28;20054;-69
2022/04/15 03:27:45;;;;;;;13.13;6.63;;;;;;;;;;5085323;28;20042;-69
2022/04/15 03:30:12;;;;;;;10.80;5.97;;;;;;;;;;5080156;28;20161;-69
2022/04/15 03:32:45;;;;;;;10.82;6.10;;;;;;;;;;5090281;28;20362;-70
2022/04/15 03:35:10;;;;;;;8.40;5.70;;;;;;;;;;5071286;28;20114;-70
2022/04/15 03:37:36;;;;;;;10.73;5.80;;;;;;;;;;5072789;28;20108;-70
2022/04/15 03:40:05;;;;;;;12.32;5.88;;;;;;;;;;5088265;28;20020;-69
2022/04/15 03:42:31;;;;;;;9.52;6.00;;;;;;;;;;5077105;28;20498;-69
2022/04/15 03:44:57;;;;;;;9.55;6.00;;;;;;;;;;5090118;28;20088;-70
2022/04/15 03:47:23;;;;;;;7.53;4.88;;;;;;;;;;5054790;28;20021;-69
2022/04/15 03:49:49;;;;;;;9.98;6.10;;;;;;;;;;5058952;28;20098;-70
2022/04/15 03:52:15;;;;;;;10.55;5.78;;;;;;;;;;5055089;28;20381;-69
2022/04/15 03:54:41;;;;;;;14.43;6.25;;;;;;;;;;5090022;28;20028;-70
2022/04/15 03:57:07;;;;;;;11.25;4.93;;;;;;;;;;5086717;28;20119;-69
2022/04/15 03:59:33;;;;;;;11.02;5.28;;;;;;;;;;5075307;28;20157;-69
2022/04/15 04:01:59;;;;;;;11.85;4.88;;;;;;;;;;5062926;28;20094;-70
2022/04/15 04:04:25;;;;;;;7.20;4.40;;;;;;;;;;5081314;28;20473;-69
2022/04/15 04:06:51;;;;;;;8.45;4.53;;;;;;;;;;5070151;28;20025;-70
2022/04/15 04:09:17;;;;;;;6.30;4.10;;;;;;;;;;5073985;28;20029;-70
2022/04/15 04:11:43;;;;;;;9.40;5.07;;;;;;;;;;5065001;28;20497;-70
2022/04/15 04:14:10;;;;;;;7.90;4.13;;;;;;;;;;5071895;28;20053;-70
2022/04/15 04:16:36;;;;;;;6.90;4.38;;;;;;;;;;5055837;28;20039;-70
2022/04/15 04:19:02;;;;;;;9.20;4.53;;;;;;;;;;5089056;28;20015;-70
2022/04/15 04:21:30;;;;;;;6.70;4.55;;;;;;;;;;5072805;28;20390;-70
2022/04/15 04:23:56;;;;;;;17.33;4.57;;;;;;;;;;5076910;28;20078;-70
2022/04/15 04:26:22;;;;;;;8.25;4.57;;;;;;;;;;5065495;28;20031;-70
2022/04/15 04:28:48;;;;;;;11.80;4.45;;;;;;;;;;5090913;28;20020;-70
2022/04/15 04:31:14;;;;;;;7.65;4.38;;;;;;;;;;5086350;28;20097;-70
2022/04/15 04:33:40;;;;;;;9.13;4.22;;;;;;;;;;5068692;28;20420;-70
2022/04/15 04:36:06;;;;;;;9.27;4.47;;;;;;;;;;5067232;28;20063;-70
2022/04/15 04:38:32;;;;;;;7.80;4.13;;;;;;;;;;5049978;28;20025;-70
2022/04/15 04:40:58;;;;;;;8.80;4.10;;;;;;;;;;5069318;28;20032;-70
2022/04/15 04:43:24;;;;;;;5.95;4.03;;;;;;;;;;5069308;28;20119;-70
2022/04/15 04:45:50;;;;;;;9.40;4.63;;;;;;;;;;5052742;28;20048;-70
2022/04/15 04:48:16;;;;;;;9.30;4.32;;;;;;;;;;5071810;28;20111;-70
2022/04/15 04:50:42;;;;;;;20.50;4.82;;;;;;;;;;5076579;28;20028;-71
2022/04/15 04:53:08;;;;;;;6.22;3.72;;;;;;;;;;5082330;28;20393;-70
2022/04/15 04:55:34;;;;;;;9.38;4.15;;;;;;;;;;5043253;28;20033;-70
2022/04/15 04:58:00;;;;;;;7.65;4.35;;;;;;;;;;5069369;28;20135;-70
2022/04/15 05:00:26;;;;;;;10.13;4.50;;;;;;;;;;5056632;28;20431;-70
2022/04/15 05:02:52;;;;;;;7.07;3.97;;;;;;;;;;5049416;28;20486;-70
2022/04/15 05:05:18;;;;;;;8.43;3.65;;;;;;;;;;5058872;28;21350;-70
2022/04/15 05:07:44;;;;;;;6.30;4.15;;;;;;;;;;5088538;28;20035;-70
2022/04/15 05:10:11;;;;;;;7.03;3.95;;;;;;;;;;5057807;28;20031;-70
2022/04/15 05:12:37;;;;;;;8.82;3.55;;;;;;;;;;5063049;28;20027;-70
2022/04/15 05:15:03;;;;;;;5.47;3.38;;;;;;;;;;5076753;28;20072;-70
2022/04/15 05:17:29;;;;;;;7.28;3.95;;;;;;;;;;5067957;28;20032;-70
2022/04/15 05:19:55;;;;;;;9.93;4.00;;;;;;;;;;5069601;28;20021;-70
2022/04/15 05:22:23;;;;;;;9.23;4.05;;;;;;;;;;5071142;28;20027;-70
2022/04/15 05:24:49;;;;;;;5.65;3.70;;;;;;;;;;5055743;28;20481;-71
2022/04/15 05:27:15;;;;;;;8.27;3.53;;;;;;;;;;5053259;28;20039;-70
2022/04/15 05:29:41;;;;;;;6.82;3.80;;;;;;;;;;5077416;28;20020;-70
2022/04/15 05:32:07;;;;;;;8.77;3.70;;;;;;;;;;5071067;28;20492;-70
2022/04/15 05:34:33;;;;;;;10.45;4.50;;;;;;;;;;5051436;28;20068;-71
2022/04/15 05:36:59;;;;;;;5.70;4.05;;;;;;;;;;5049184;28;20497;-70
2022/04/15 05:39:25;;;;;;;6.50;3.65;;;;;;;;;;5052096;28;20024;-70
2022/04/15 05:41:51;;;;;;;6.20;4.00;;;;;;;;;;5061326;28;20398;-70
2022/04/15 05:44:17;;;;;;;10.15;4.35;;;;;;;;;;5083987;28;20503;-70
2022/04/15 05:46:43;;;;;;;6.70;4.22;;;;;;;;;;5086964;28;20111;-70
2022/04/15 05:49:16;;;;;;;7.18;3.53;;;;;;;;;;5057401;28;20067;-70
2022/04/15 05:51:43;;;;;;;7.40;3.78;;;;;;;;;;5073394;28;20036;-70
2022/04/15 05:54:09;;;;;;;6.25;3.80;;;;;;;;;;5068570;28;20039;-70
2022/04/15 05:56:36;;;;;;;11.95;4.18;;;;;;;;;;5066227;28;20459;-71
2022/04/15 05:59:02;;;;;;;10.85;4.05;;;;;;;;;;5058338;28;20110;-70
2022/04/15 06:01:28;;;;;;;9.48;3.90;;;;;;;;;;5066207;28;20365;-68
2022/04/15 06:03:54;;;;;;;10.55;4.00;;;;;;;;;;5082475;28;20077;-69
2022/04/15 06:06:20;;;;;;;5.88;3.40;;;;;;;;;;5081275;28;20036;-68
2022/04/15 06:08:46;;;;;;;6.70;3.38;;;;;;;;;;5078015;28;20084;-68
2022/04/15 06:11:12;;;;;;;9.23;3.80;;;;;;;;;;5092085;28;20377;-69
2022/04/15 06:13:41;;;;;;;8.55;3.95;;;;;;;;;;5093495;28;20028;-68
2022/04/15 06:16:09;;;;;;;6.60;3.80;;;;;;;;;;5073439;28;20485;-68
2022/04/15 06:18:36;;;;;;;7.63;4.05;;;;;;;;;;5091511;28;20111;-69
2022/04/15 06:21:03;;;;;;;12.13;4.38;;;;;;;;;;5088779;28;20110;-68
2022/04/15 06:23:29;;;;;;;7.72;5.07;;;;;;;;;;5088713;28;20024;-68
2022/04/15 06:25:55;;;;;;;10.68;3.55;;;;;;;;;;5079474;28;20066;-68
2022/04/15 06:28:21;;;;;;;7.93;4.45;;;;;;;;;;5082833;28;20088;-68
2022/04/15 06:30:48;;;;;;;6.50;3.78;;;;;;;;;;5085803;28;20020;-68
2022/04/15 06:33:19;;;;;;;8.32;4.43;;;;;;;;;;5089691;28;20377;-68
2022/04/15 06:35:46;;;;;;;7.10;4.22;;;;;;;;;;5091084;28;20071;-67
2022/04/15 06:38:12;;;;;;;6.72;4.20;;;;;;;;;;5066072;28;20036;-67
2022/04/15 06:40:40;;;;;;;8.50;4.03;;;;;;;;;;5087734;28;20020;-68
2022/04/15 06:43:06;;;;;;;12.43;5.05;;;;;;;;;;5080835;28;20028;-67
2022/04/15 06:45:32;;;;;;;8.40;4.20;;;;;;;;;;5065539;28;20028;-68
2022/04/15 06:47:58;;;;;;;9.15;4.60;;;;;;;;;;5080526;28;20024;-67
2022/04/15 06:50:24;;;;;;;6.93;4.50;;;;;;;;;;5087538;28;20035;-67
2022/04/15 06:52:50;;;;;;;10.63;4.75;;;;;;;;;;5075974;28;20032;-67
2022/04/15 06:55:16;;;;;;;15.65;5.13;;;;;;;;;;5081579;28;20550;-67
2022/04/15 06:57:42;;;;;;;7.05;4.25;;;;;;;;;;5084982;28;20024;-67
2022/04/15 07:00:09;;;;;;;13.32;5.20;;;;;;;;;;5079358;28;20113;-67
2022/04/15 07:02:36;;;;;;;10.93;4.57;;;;;;;;;;5089766;28;20020;-67
2022/04/15 07:05:02;;;;;;;9.13;4.82;;;;;;;;;;5066821;28;20037;-67
2022/04/15 07:07:28;;;;;;;10.20;4.45;;;;;;;;;;5070029;28;20128;-67
2022/04/15 07:09:54;;;;;;;10.52;5.38;;;;;;;;;;5060823;28;20106;-67
2022/04/15 07:12:20;;;;;;;9.05;4.47;;;;;;;;;;5089128;28;20023;-67
2022/04/15 07:14:46;;;;;;;7.82;4.78;;;;;;;;;;5079703;28;22440;-67
2022/04/15 07:17:12;;;;;;;7.93;5.25;;;;;;;;;;5085095;28;20020;-67
2022/04/15 07:19:39;;;;;;;10.48;5.95;;;;;;;;;;5073769;28;20396;-67
2022/04/15 07:22:05;;;;;;;11.77;6.25;;;;;;;;;;5082224;28;20028;-67
2022/04/15 07:24:32;;;;;;;10.40;6.28;;;;;;;;;;5090235;28;20513;-69
2022/04/15 07:26:59;;;;;;;12.60;6.40;;;;;;;;;;5080749;28;20282;-67
2022/04/15 07:29:26;;;;;;;11.88;6.75;;;;;;;;;;5077611;28;20029;-67
2022/04/15 07:31:52;;;;;;;12.23;6.97;;;;;;;;;;5069525;28;20020;-66
2022/04/15 07:34:18;;;;;;;13.10;7.30;;;;;;;;;;5081876;28;20032;-67
2022/04/15 07:36:48;;;;;;;15.30;7.70;;;;;;;;;;5086468;28;20044;-67
2022/04/15 07:39:14;;;;;;;14.98;8.43;;;;;;;;;;5078472;28;20034;-67
2022/04/15 07:41:41;;;;;;;16.73;8.27;;;;;;;;;;5081183;28;20326;-67
2022/04/15 07:44:10;;;;;;;23.30;11.20;;;;;;;;;;5085103;28;20028;-67
2022/04/15 07:46:37;;;;;;;20.50;8.55;;;;;;;;;;5076334;28;20086;-67
2022/04/15 07:49:04;;;;;;;15.30;8.82;;;;;;;;;;5076949;28;20044;-67
2022/04/15 07:51:30;;;;;;;17.85;9.27;;;;;;;;;;5078601;28;20523;-68
2022/04/15 07:53:56;;;;;;;13.88;8.48;;;;;;;;;;5085471;28;20165;-67
2022/04/15 07:56:22;;;;;;;15.43;9.07;;;;;;;;;;5089025;28;20060;-67
2022/04/15 07:58:50;;;;;;;21.00;10.52;;;;;;;;;;5080296;28;20066;-67
2022/04/15 08:01:16;;;;;;;21.98;11.10;;;;;;;;;;5079930;28;20158;-67
2022/04/15 08:03:42;;;;;;;27.42;10.13;;;;;;;;;;5059362;28;20024;-68
2022/04/15 08:06:08;;;;;;;30.17;11.95;;;;;;;;;;5076793;28;20094;-67
2022/04/15 08:08:34;;;;;;;19.67;10.60;;;;;;;;;;5072240;28;20508;-67
2022/04/15 08:11:01;;;;;;;16.48;10.27;;;;;;;;;;5090284;28;20028;-67
2022/04/15 08:13:27;;;;;;;17.20;10.70;;;;;;;;;;5081005;28;20020;-67
2022/04/15 08:15:53;;;;;;;27.92;12.60;;;;;;;;;;5066148;28;20063;-67
2022/04/15 08:18:20;;;;;;;22.83;11.05;;;;;;;;;;5084176;28;20028;-69
2022/04/15 08:20:47;;;;;;;25.08;13.63;;;;;;;;;;5076929;28;20736;-68
2022/04/15 08:23:13;;;;;;;21.40;11.77;;;;;;;;;;5083937;28;20031;-68
2022/04/15 08:25:39;;;;;;;22.92;13.32;;;;;;;;;;5083349;28;20032;-68
2022/04/15 08:28:05;;;;;;;19.60;11.43;;;;;;;;;;5089437;28;20024;-68
2022/04/15 08:30:33;;;;;;;21.20;12.73;;;;;;;;;;5079326;28;20032;-66
2022/04/15 08:32:59;;;;;;;22.70;12.27;;;;;;;;;;5068411;28;20267;-66
2022/04/15 08:35:27;;;;;;;21.88;12.70;;;;;;;;;;5084586;28;20040;-66
2022/04/15 08:40:35;;;;;;;18.45;9.63;;;;;;;;;;5078461;22;20122;-67
2022/04/15 08:43:03;;;;;;;19.83;9.95;;;;;;;;;;5066218;28;20040;-67
2022/04/15 08:45:30;;;;;;;14.63;8.45;;;;;;;;;;5078844;28;20516;-67
2022/04/15 08:47:59;;;;;;;17.98;9.65;;;;;;;;;;5087311;28;20031;-67
2022/04/15 08:50:26;;;;;;;20.80;8.35;;;;;;;;;;5086393;28;20016;-67
2022/04/15 08:52:53;;;;;;;15.18;9.02;;;;;;;;;;5082356;28;20058;-67
2022/04/15 08:55:22;;;;;;;22.15;9.65;;;;;;;;;;5079440;28;20037;-67
2022/04/15 08:57:49;;;;;;;17.95;9.18;;;;;;;;;;5083617;28;20017;-66
2022/04/15 09:00:15;;;;;;;15.07;9.00;;;;;;;;;;5081068;28;20038;-67
2022/04/15 09:02:41;;;;;;;23.27;10.23;;;;;;;;;;5077476;28;20634;-67
2022/04/15 09:05:08;;;;;;;20.63;9.38;;;;;;;;;;5071873;28;20409;-66
2022/04/15 09:07:34;;;;;;;15.55;9.00;;;;;;;;;;5087991;28;20078;-67
2022/04/15 09:10:02;;;;;;;13.25;7.00;;;;;;;;;;5068333;28;20082;-67
2022/04/15 09:12:29;;;;;;;15.98;8.35;;;;;;;;;;5078761;28;20036;-67
2022/04/15 09:15:01;;;;;;;19.75;9.90;;;;;;;;;;5083212;28;20028;-67
2022/04/15 09:17:28;;;;;;;14.63;8.32;;;;;;;;;;5090989;28;20032;-67
2022/04/15 09:19:55;;;;;;;19.50;8.98;;;;;;;;;;5078301;28;20055;-67
2022/04/15 09:22:21;;;;;;;14.82;7.60;;;;;;;;;;5092370;28;20028;-67
2022/04/15 09:24:47;;;;;;;15.45;9.18;;;;;;;;;;5071006;28;20039;-68
2022/04/15 09:27:16;;;;;;;25.13;10.75;;;;;;;;;;5088766;28;20036;-67
2022/04/15 09:29:42;;;;;;;14.82;8.73;;;;;;;;;;5069387;28;20021;-67
2022/04/15 09:32:09;;;;;;;14.35;8.10;;;;;;;;;;5073275;28;20493;-67
2022/04/15 09:34:52;;;;;;;12.43;6.82;;;;;;;;;;5065795;28;20017;-67
2022/04/15 09:37:19;;;;;;;12.77;6.63;;;;;;;;;;5073735;28;20044;-68
2022/04/15 09:40:02;;;;;;;12.55;6.65;;;;;;;;;;5086647;28;20071;-67
2022/04/15 09:42:29;;;;;;;13.40;6.70;;;;;;;;;;5090146;28;20089;-67
2022/04/15 09:44:59;;;;;;;14.27;8.05;;;;;;;;;;5072125;28;20024;-67
2022/04/15 09:47:27;;;;;;;11.68;6.60;;;;;;;;;;5074788;28;20031;-67
2022/04/15 09:49:53;;;;;;;15.60;7.75;;;;;;;;;;5084227;28;20052;-68
2022/04/15 09:52:25;;;;;;;15.50;7.35;;;;;;;;;;5071776;28;20102;-67
2022/04/15 09:54:53;;;;;;;14.55;8.30;;;;;;;;;;5076054;28;20542;-67
2022/04/15 09:57:19;;;;;;;16.77;7.50;;;;;;;;;;5081708;28;20032;-67
2022/04/15 09:59:47;;;;;;;17.67;7.05;;;;;;;;;;5086943;28;20020;-67
2022/04/15 10:02:13;;;;;;;13.77;6.88;;;;;;;;;;5075568;28;20029;-67
2022/04/15 10:04:42;;;;;;;17.30;8.20;;;;;;;;;;5077085;28;20138;-67
2022/04/15 10:07:08;;;;;;;13.27;7.95;;;;;;;;;;5078653;28;20464;-67
2022/04/15 10:09:41;;;;;;;13.20;6.55;;;;;;;;;;5071154;28;20056;-67
2022/04/15 10:12:08;;;;;;;9.15;5.90;;;;;;;;;;5086975;28;20064;-67
2022/04/15 10:14:35;;;;;;;6.60;3.95;;;;;;;;;;5080179;28;20028;-67
2022/04/15 10:17:02;;;;;;;8.80;3.55;;;;;;;;;;5088890;28;20097;-67
2022/04/15 10:19:29;;;;;;;7.40;3.17;;;;;;;;;;5077803;28;20591;-67
2022/04/15 10:21:56;;;;;;;5.82;3.55;;;;;;;;;;5076548;28;20032;-67
2022/04/15 10:24:25;;;;;;;6.15;2.75;;;;;;;;;;5080668;28;20480;-67
2022/04/15 10:26:56;;;;;;;4.47;3.25;;;;;;;;;;5070423;28;20039;-67
2022/04/15 10:29:22;;;;;;;5.30;3.60;;;;;;;;;;5082477;28;20025;-67
2022/04/15 10:31:48;;;;;;;6.65;2.88;;;;;;;;;;5073079;28;20048;-67
2022/04/15 10:34:16;;;;;;;5.22;2.45;;;;;;;;;;5077946;28;20138;-67
2022/04/15 10:36:45;;;;;;;7.80;3.90;;;;;;;;;;5073679;28;20024;-66
2022/04/15 10:39:11;;;;;;;5.38;3.10;;;;;;;;;;5078598;28;20226;-66
2022/04/15 10:41:46;;;;;;;7.60;3.13;;;;;;;;;;5078123;28;20056;-67
2022/04/15 10:44:14;;;;;;;4.25;3.10;;;;;;;;;;5070400;28;20040;-66
2022/04/15 10:46:40;;;;;;;3.92;3.08;;;;;;;;;;5068090;28;20027;-66
2022/04/15 10:49:27;;;;;;;6.28;3.35;;;;;;;;;;5078643;28;20028;-67
2022/04/15 10:51:57;;;;;;;7.03;3.53;;;;;;;;;;5079016;28;20031;-66
2022/04/15 10:54:36;;;;;;;13.60;3.40;;;;;;;;;;5084172;28;20086;-67
2022/04/15 10:57:09;;;;;;;8.25;4.25;;;;;;;;;;5072926;28;20036;-66
2022/04/15 11:02:21;;;;;;;9.75;3.90;;;;;;;;;;5084008;28;20051;-67
2022/04/15 11:04:51;;;;;;;7.35;3.95;;;;;;;;;;5090599;28;20020;-66
2022/04/15 11:07:26;;;;;;;7.10;3.85;;;;;;;;;;5072120;28;20028;-66
2022/04/15 11:09:52;;;;;;;7.13;3.15;;;;;;;;;;5062512;28;20032;-66
2022/04/15 11:12:30;;;;;;;8.43;4.38;;;;;;;;;;5079538;28;20493;-66
2022/04/15 11:14:56;;;;;;;6.38;3.58;;;;;;;;;;5070939;28;20016;-69
2022/04/15 11:17:45;;;;;;;7.72;3.25;;;;;;;;;;5087392;28;20031;-67
2022/04/15 11:20:11;;;;;;;7.18;3.22;;;;;;;;;;5063136;28;20360;-66
2022/04/15 11:22:38;;;;;;;7.70;3.20;;;;;;;;;;5072956;28;20044;-67
2022/04/15 11:25:05;;;;;;;9.68;3.72;;;;;;;;;;5071585;28;20027;-67
2022/04/15 11:27:34;;;;;;;4.75;3.30;;;;;;;;;;5072916;28;20481;-67
2022/04/15 11:30:04;;;;;;;5.22;3.75;;;;;;;;;;5066438;28;20539;-66
2022/04/15 11:32:31;;;;;;;5.70;3.50;;;;;;;;;;5075390;28;20043;-66
2022/04/15 11:35:03;;;;;;;5.10;3.22;;;;;;;;;;5085648;28;20484;-66
2022/04/15 11:37:29;;;;;;;7.50;3.40;;;;;;;;;;5088895;28;20487;-67
2022/04/15 11:39:55;;;;;;;7.85;2.13;;;;;;;;;;5072993;28;20156;-68
2022/04/15 11:42:21;;;;;;;3.92;2.03;;;;;;;;;;5067119;28;20059;-67
2022/04/15 11:44:47;;;;;;;3.85;2.00;;;;;;;;;;5070879;28;20025;-67
2022/04/15 11:47:16;;;;;;;4.45;2.60;;;;;;;;;;5075631;28;20035;-67
2022/04/15 11:49:42;;;;;;;2.95;2.38;;;;;;;;;;5084761;28;20507;-67
2022/04/15 11:52:08;;;;;;;2.92;2.10;;;;;;;;;;5076494;28;20122;-67
2022/04/15 11:54:35;;;;;;;2.95;2.20;;;;;;;;;;5073052;28;20474;-67
2022/04/15 11:57:03;;;;;;;4.75;2.70;;;;;;;;;;5084308;28;20025;-67
2022/04/15 11:59:29;;;;;;;6.10;2.45;;;;;;;;;;5051510;28;20104;-67
2022/04/15 12:01:56;;;;;;;8.45;2.47;;;;;;;;;;5076080;28;20024;-67
2022/04/15 12:04:22;;;;;;;4.35;2.45;;;;;;;;;;5069940;28;20029;-67
2022/04/15 12:06:49;;;;;;;5.60;3.63;;;;;;;;;;5089182;28;20385;-67
2022/04/15 12:09:16;;;;;;;9.10;3.83;;;;;;;;;;5070883;28;20508;-67
2022/04/15 12:11:42;;;;;;;6.90;3.42;;;;;;;;;;5078460;28;20029;-67
2022/04/15 12:14:09;;;;;;;6.50;3.50;;;;;;;;;;5087318;28;20028;-67
2022/04/15 12:16:36;;;;;;;3.28;2.22;;;;;;;;;;5082316;28;20493;-67
2022/04/15 12:19:03;;;;;;;2.88;2.33;;;;;;;;;;5068690;28;20024;-67
2022/04/15 12:21:30;;;;;;;5.88;2.80;;;;;;;;;;5070937;28;20036;-67
2022/04/15 12:24:09;;;;;;;4.63;3.47;;;;;;;;;;5079172;28;20450;-67
2022/04/15 12:26:41;;;;;;;4.63;3.13;;;;;;;;;;5046670;28;20031;-67
2022/04/15 12:31:51;;;;;;;4.97;2.85;;;;;;;;;;5059560;28;20051;-67
2022/04/15 12:34:18;;;;;;;6.00;3.08;;;;;;;;;;5076218;28;20028;-67
2022/04/15 12:36:45;;;;;;;4.70;3.03;;;;;;;;;;5065154;28;20043;-68
2022/04/15 12:39:11;;;;;;;7.53;3.45;;;;;;;;;;5069090;28;20028;-66
2022/04/15 12:41:48;;;;;;;4.55;2.90;;;;;;;;;;5063293;28;20394;-67
2022/04/15 12:44:23;;;;;;;6.25;3.60;;;;;;;;;;5082506;28;20036;-67
2022/04/15 12:46:55;;;;;;;9.07;3.50;;;;;;;;;;5082612;28;20028;-67
2022/04/15 12:49:34;;;;;;;4.45;3.38;;;;;;;;;;5089100;28;20036;-67
2022/04/15 12:52:17;;;;;;;8.25;3.08;;;;;;;;;;5068377;28;20417;-66
2022/04/15 12:55:02;;;;;;;5.90;2.70;;;;;;;;;;5091320;28;20024;-66
2022/04/15 12:57:32;;;;;;;7.78;3.15;;;;;;;;;;5078596;28;20036;-67
2022/04/15 12:59:58;;;;;;;7.28;3.42;;;;;;;;;;5091887;28;20028;-67
2022/04/15 13:02:25;;;;;;;4.80;2.53;;;;;;;;;;5082318;28;20058;-66
2022/04/15 13:04:52;;;;;;;3.85;2.45;;;;;;;;;;5081152;28;20020;-67
2022/04/15 13:07:19;;;;;;;4.43;2.63;;;;;;;;;;5087518;28;20437;-66
2022/04/15 13:09:45;;;;;;;3.70;2.75;;;;;;;;;;5076237;28;20024;-67
2022/04/15 13:12:11;;;;;;;4.85;2.30;;;;;;;;;;5086267;28;20039;-66
2022/04/15 13:14:37;;;;;;;7.03;2.47;;;;;;;;;;5075319;28;20082;-67
2022/04/15 13:17:04;;;;;;;3.45;2.20;;;;;;;;;;5069094;28;20127;-66
2022/04/15 13:19:30;;;;;;;3.05;2.17;;;;;;;;;;5073008;28;20028;-66
2022/04/15 13:21:56;;;;;;;7.05;3.00;;;;;;;;;;5080223;28;20023;-66
2022/04/15 13:24:22;;;;;;;4.80;3.00;;;;;;;;;;5084424;28;20119;-66
2022/04/15 13:26:48;;;;;;;5.30;3.17;;;;;;;;;;5075055;28;20158;-67
2022/04/15 13:29:14;;;;;;;4.15;2.78;;;;;;;;;;5064098;28;20096;-66
2022/04/15 13:31:40;;;;;;;3.35;3.05;;;;;;;;;;5071292;28;20037;-66
2022/04/15 13:34:06;;;;;;;6.75;3.03;;;;;;;;;;5078038;28;20037;-66
2022/04/15 13:36:32;;;;;;;4.65;2.85;;;;;;;;;;5071471;28;20071;-67
2022/04/15 13:38:58;;;;;;;6.07;3.10;;;;;;;;;;5081710;28;20028;-66
2022/04/15 13:41:26;;;;;;;5.70;2.65;;;;;;;;;;5073356;28;20046;-66
2022/04/15 13:43:52;;;;;;;3.63;2.50;;;;;;;;;;5080522;28;20032;-66
2022/04/15 13:46:19;;;;;;;5.80;3.10;;;;;;;;;;5077924;28;20103;-66
2022/04/15 13:48:45;;;;;;;5.65;3.20;;;;;;;;;;5073920;28;20085;-66
2022/04/15 13:51:11;;;;;;;5.65;2.80;;;;;;;;;;5079531;28;20420;-66
2022/04/15 13:56:34;;;;;;;4.55;3.00;;;;;;;;;;5068578;28;20094;-66
2022/04/15 13:59:00;;;;;;;2.72;2.45;;;;;;;;;;5076793;28;20028;-66
2022/04/15 14:01:28;;;;;;;5.10;2.40;;;;;;;;;;5071268;28;20032;-66
2022/04/15 14:03:55;;;;;;;7.43;2.85;;;;;;;;;;5072367;28;20017;-66
2022/04/15 14:06:22;;;;;;;3.58;2.30;;;;;;;;;;5078896;28;20043;-66
2022/04/15 14:08:48;;;;;;;5.43;2.55;;;;;;;;;;5071173;28;20078;-66
2022/04/15 14:11:14;;;;;;;3.47;2.92;;;;;;;;;;5069046;28;20024;-66
2022/04/15 14:13:43;;;;;;;4.70;3.10;;;;;;;;;;5071634;28;20035;-66
2022/04/15 14:16:10;;;;;;;3.58;2.72;;;;;;;;;;5067150;28;20127;-66
2022/04/15 14:18:36;;;;;;;6.45;3.28;;;;;;;;;;5065683;28;20116;-67
2022/04/15 14:21:02;;;;;;;8.13;2.90;;;;;;;;;;5070644;28;20120;-66
2022/04/15 14:23:28;;;;;;;8.02;3.38;;;;;;;;;;5071112;28;20552;-66
2022/04/15 14:25:54;;;;;;;9.23;3.00;;;;;;;;;;5067054;28;20448;-66
2022/04/15 14:28:20;;;;;;;4.35;2.85;;;;;;;;;;5066224;28;20111;-66
2022/04/15 14:30:46;;;;;;;5.07;3.38;;;;;;;;;;5087089;28;20111;-66
2022/04/15 14:33:12;;;;;;;5.22;3.03;;;;;;;;;;5080000;28;20067;-66
2022/04/15 14:35:43;;;;;;;5.60;3.15;;;;;;;;;;5078688;28;20082;-66
2022/04/15 14:38:09;;;;;;;5.18;2.97;;;;;;;;;;5075555;28;20031;-66
2022/04/15 14:40:35;;;;;;;5.15;3.17;;;;;;;;;;5075467;28;20064;-67
2022/04/15 14:43:01;;;;;;;12.60;3.70;;;;;;;;;;5076349;28;20036;-66
2022/04/15 14:45:27;;;;;;;5.15;3.25;;;;;;;;;;5082557;28;20016;-67
2022/04/15 14:47:53;;;;;;;5.03;3.10;;;;;;;;;;5078506;28;20028;-68